Rincon Central (216, 909) Station Data

Red Flag Warning: No
Fire Weather Zone: 250
SDGE Region: North East
Lat/Lon: 33.271/-116.946

Observations

Time Wind Speed/Gust Temp(F) RH Fuel Moist Fuel Temp(F) Dewpt(F) Tmax(F) Tmin(F) Accum Precip 10-min Precip SL Press(mb)
6/27 5:00pm 301 8 G 13 95° 17% - - 43° 100.4° 62.1° - - -
6/27 4:50pm 306 8 G 13 95° 16% - - 42° 100.4° 62.1° - - -
6/27 4:40pm 317 8 G 15 95° 17% - - 44° 100.4° 62.1° - - -
6/27 4:30pm 322 9 G 15 95° 18% - - 44° 100.4° 62.1° - - -
6/27 4:20pm 313 10 G 15 95° 17% - - 44° 100.4° 62.1° - - -
6/27 4:10pm 308 9 G 13 96° 16% - - 43° 100.4° 62.1° - - -
6/27 4:00pm 322 9 G 14 96° 16% - - 43° 100.4° 62.1° - - -
6/27 3:50pm 322 9 G 15 96° 16% - - 42° 100.4° 62.1° - - -
6/27 3:40pm 323 8 G 14 97° 15% - - 41° 100.4° 62.1° - - -
6/27 3:30pm 320 10 G 17 97° 14% - - 39° 100.4° 62.1° - - -
6/27 3:20pm 316 9 G 15 98° 13% - - 39° 100.4° 62.1° - - -
6/27 3:10pm 313 10 G 16 97° 14% - - 40° 100.4° 62.1° - - -
6/27 3:00pm 297 8 G 15 98° 14% - - 41° 100.4° 62.1° - - -
6/27 2:50pm 291 8 G 14 98° 13% - - 38° 100.4° 62.1° - - -
6/27 2:40pm 288 9 G 16 99° 13% - - 39° 100.4° 62.1° - - -
6/27 2:30pm 307 9 G 16 99° 12% - - 37° 100.4° 62.1° - - -
6/27 2:20pm 276 10 G 16 98° 11% - - 35° 100.4° 62.1° - - -
6/27 2:10pm 273 8 G 16 99° 11% - - 34° 100.4° 62.1° - - -
6/27 2:00pm 314 9 G 15 99° 11% - - 34° 100° 62.1° - - -
6/27 1:50pm 291 8 G 14 99° 11% - - 36° 100° 62.1° - - -
6/27 1:40pm 266 7 G 15 99° 11% - - 36° 99.8° 62.1° - - -
6/27 1:30pm 279 9 G 14 99° 11% - - 34° 99.8° 62.1° - - -
6/27 1:20pm 268 8 G 16 98° 11% - - 34° 99.8° 62.1° - - -
6/27 1:10pm 282 8 G 14 99° 10% - - 33° 99.7° 62.1° - - -
6/27 1:00pm 299 8 G 13 98° 9% - - 31° 99.5° 62.1° - - -
6/27 12:50pm 302 7 G 12 98° 9% - - 31° 99.5° 62.1° - - -
6/27 12:40pm 308 7 G 14 98° 9% - - 29° 99.2° 62.1° - - -
6/27 12:30pm 290 8 G 15 98° 8% - - 28° 99.1° 62.1° - - -
6/27 12:20pm 286 8 G 17 98° 8% - - 28° 99.1° 62.1° - - -
6/27 12:10pm 310 7 G 13 98° 9% - - 30° 99.1° 62.1° - - -
6/27 12:00pm 300 7 G 14 97° 9% - - 29° 98.4° 62.1° - - -
6/27 11:50am 258 7 G 16 97° 10% - - 32° 98.4° 62.1° - - -
6/27 11:40am 295 6 G 17 97° 10% - - 32° 98.4° 62.1° - - -
6/27 11:30am 327 4 G 10 96° 11% - - 34° 97.9° 62.1° - - -
6/27 11:20am 351 4 G 10 96° 11% - - 34° 97.9° 62.1° - - -
6/27 11:10am 352 5 G 9 95° 12% - - 34° 96.7° 62.1° - - -
6/27 11:00am 317 6 G 10 96° 11% - - 32° 96.7° 62.1° - - -
6/27 10:50am 332 5 G 9 95° 10% - - 31° 96.2° 62.1° - - -
6/27 10:40am 330 4 G 9 94° 13% - - 35° 95.2° 62.1° - - -
6/27 10:30am 317 5 G 9 93° 14% - - 36° 93.9° 62.1° - - -
6/27 10:20am 316 4 G 9 93° 14% - - 37° 93.3° 62.1° - - -
6/27 10:10am 282 5 G 9 92° 15% - - 38° 92.9° 62.1° - - -
6/27 10:00am 285 4 G 7 92° 14% - - 36° 92.7° 62.1° - - -
6/27 9:50am 315 2 G 7 91° 13% - - 34° 92.3° 62.1° - - -
6/27 9:40am 316 3 G 5 90° 14% - - 34° 91° 62.1° - - -
6/27 9:30am 308 2 G 4 89° 13% - - 32° 90.3° 62.1° - - -
6/27 9:20am 283 2 G 5 89° 13% - - 31° 89.3° 62.1° - - -
6/27 9:10am 293 2 G 5 88° 15% - - 35° 88.9° 62.1° - - -
6/27 9:00am 318 2 G 4 87° 15% - - 34° 87.6° 62.1° - - -
6/27 8:50am 333 2 G 4 86° 16% - - 35° 86.6° 62.1° - - -
6/27 8:40am 303 2 G 3 84° 18% - - 37° 85.2° 62.1° - - -
6/27 8:30am 309 2 G 3 83° 19% - - 37° 84° 62.1° - - -
6/27 8:20am 273 2 G 3 82° 20% - - 37° 83.1° 62.1° - - -
6/27 8:10am 304 2 G 4 80° 20% - - 36° 82.1° 62.1° - - -
6/27 8:00am 308 2 G 4 79° 21% - - 36° 79.9° 62.1° - - -
6/27 7:50am 316 2 G 4 77° 21% - - 34° 78.4° 62.1° - - -
6/27 7:40am 333 2 G 4 76° 22% - - 34° 77.2° 62.1° - - -
6/27 7:30am 293 2 G 5 75° 23% - - 35° 76.6° 62.1° - - -
6/27 7:20am 74 2 G 7 72° 26% - - 36° 74.5° 62.1° - - -
6/27 7:10am 41 1 G 3 69° 29% - - 35° 73.1° 62.1° - - -
6/27 7:00am 70 2 G 4 68° 29% - - 34° 73.1° 62.1° - - -
6/27 6:50am 82 2 G 4 66° 31% - - 34° 73.1° 62.1° - - -
6/27 6:40am 81 1 G 4 66° 30% - - 34° 73.1° 62.1° - - -
6/27 6:30am 67 1 G 3 64° 32% - - 34° 73.1° 62.1° - - -
6/27 6:20am 55 1 G 3 64° 32% - - 34° 73.1° 62.1° - - -
6/27 6:10am 100 1 G 3 63° 34% - - 34° 73.1° 62.1° - - -
6/27 6:00am 335 2 G 4 63° 34% - - 35° 73.1° 62.1° - - -
6/27 5:50am 4 2 G 8 65° 32% - - 34° 73.1° 63.7° - - -
6/27 5:40am 54 3 G 7 66° 30% - - 34° 73.1° 63.8° - - -
6/27 5:30am 87 2 G 5 67° 29% - - 33° 73.1° 63.8° - - -
6/27 5:20am 87 2 G 5 65° 31% - - 34° 73.1° 63.8° - - -
6/27 5:10am 71 1 G 2 65° 31% - - 34° 73.1° 63.8° - - -
6/27 5:00am 104 1 G 4 66° 30% - - 34° 73.1° 63.8° - - -
6/27 4:50am 78 2 G 3 66° 30% - - 34° 73.1° 63.8° - - -
6/27 4:40am 84 1 G 4 66° 30% - - 34° 73.1° 63.8° - - -
6/27 4:30am 356 1 G 4 65° 32% - - 34° 73.1° 63.8° - - -
6/27 4:20am 71 0 G 2 66° 31% - - 34° 73.1° 63.9° - - -
6/27 4:10am 87 2 G 3 66° 30% - - 34° 73.1° 63.9° - - -
6/27 4:00am 85 1 G 3 66° 31% - - 34° 73.1° 63.9° - - -
6/27 3:50am 101 2 G 4 68° 29% - - 35° 73.1° 63.9° - - -
6/27 3:40am 81 2 G 3 67° 30% - - 35° 73.1° 63.9° - - -
6/27 3:30am 98 2 G 3 68° 30% - - 35° 73.1° 63.9° - - -
6/27 3:20am 99 1 G 3 68° 31% - - 36° 73.1° 63.9° - - -
6/27 3:10am 83 2 G 3 68° 31% - - 36° 73.1° 63.9° - - -
6/27 3:00am 86 2 G 3 69° 30% - - 36° 73.1° 63.9° - - -
6/27 2:50am 91 2 G 4 69° 31% - - 37° 73.1° 63.9° - - -
6/27 2:40am 83 2 G 3 68° 32% - - 38° 73.1° 63.9° - - -
6/27 2:30am 75 2 G 5 67° 34% - - 38° 73.1° 63.9° - - -
6/27 2:20am 316 1 G 2 67° 36% - - 39° 73.1° 63.9° - - -
6/27 2:10am 79 1 G 2 67° 36% - - 39° 73.1° 63.9° - - -
6/27 2:00am 69 1 G 3 67° 37% - - 40° 73.1° 63.9° - - -
6/27 1:50am 88 2 G 4 65° 40% - - 40° 73.1° 63.9° - - -
6/27 1:40am 101 2 G 3 67° 38% - - 40° 73.1° 65.3° - - -
6/27 1:30am 65 2 G 4 67° 39% - - 41° 73.1° 65.4° - - -
6/27 1:20am 328 2 G 5 68° 36% - - 40° 73.1° 67.4° - - -
6/27 1:10am 80 1 G 3 69° 36% - - 41° 73.1° 67.4° - - -
6/27 1:00am 61 1 G 2 68° 37% - - 41° 73.1° 67.4° - - -
6/27 12:50am 30 1 G 5 71° 34% - - 41° 73.1° 69.2° - - -
6/27 12:40am 14 1 G 2 70° 34% - - 41° 73.1° 69.2° - - -
6/27 12:30am 84 2 G 3 70° 34% - - 41° 73.1° 69.2° - - -
6/27 12:20am 37 1 G 3 70° 36% - - 42° 73.1° 69.2° - - -
6/27 12:10am 313 1 G 2 71° 35% - - 42° 73.1° 69.7° - - -
6/27 12:00am 69 2 G 3 72° 34% - - 42° 104.6° 62.3° - - -
6/26 11:50pm 79 2 G 3 72° 34% - - 42° 104.6° 62.3° - - -
6/26 11:40pm 133 3 G 5 72° 34% - - 42° 104.6° 62.3° - - -
6/26 11:30pm 78 2 G 4 72° 34% - - 42° 104.6° 62.3° - - -
6/26 11:20pm 77 2 G 3 72° 34% - - 42° 104.6° 62.3° - - -
6/26 11:10pm 107 1 G 2 71° 35% - - 42° 104.6° 62.3° - - -
6/26 11:00pm 144 0 G 1 72° 33% - - 41° 104.6° 62.3° - - -
6/26 10:50pm 13 1 G 2 73° 32% - - 41° 104.6° 62.3° - - -
6/26 10:40pm 57 2 G 3 75° 29% - - 40° 104.6° 62.3° - - -
6/26 10:30pm 88 1 G 2 75° 28% - - 40° 104.6° 62.3° - - -
6/26 10:20pm 88 1 G 2 77° 27% - - 40° 104.6° 62.3° - - -
6/26 10:10pm 94 1 G 2 77° 28% - - 41° 104.6° 62.3° - - -
6/26 10:00pm 107 0 G 1 76° 27% - - 40° 104.6° 62.3° - - -
6/26 9:50pm 213 0 G 1 78° 25% - - 39° 104.6° 62.3° - - -
6/26 9:40pm 83 0 G 1 79° 24% - - 39° 104.6° 62.3° - - -
6/26 9:30pm 256 1 G 3 81° 23% - - 39° 104.6° 62.3° - - -
6/26 9:20pm 322 1 G 3 82° 22% - - 39° 104.6° 62.3° - - -
6/26 9:10pm 115 1 G 2 83° 21% - - 38° 104.6° 62.3° - - -
6/26 9:00pm 103 2 G 2 83° 21% - - 38° 104.6° 62.3° - - -
6/26 8:50pm 90 1 G 2 82° 21% - - 39° 104.6° 62.3° - - -
6/26 8:40pm 95 1 G 3 83° 21% - - 39° 104.6° 62.3° - - -
6/26 8:30pm 69 2 G 4 86° 19% - - 39° 104.6° 62.3° - - -
6/26 8:20pm 58 4 G 5 86° 18% - - 38° 104.6° 62.3° - - -
6/26 8:10pm 99 2 G 4 87° 17% - - 38° 104.6° 62.3° - - -
6/26 8:00pm 8 1 G 3 90° 16% - - 37° 104.6° 62.3° - - -
6/26 7:50pm 350 2 G 3 92° 15% - - 37° 104.6° 62.3° - - -
6/26 7:40pm 330 2 G 3 92° 15% - - 38° 104.6° 62.3° - - -
6/26 7:30pm 286 2 G 4 93° 14% - - 37° 104.6° 62.3° - - -
6/26 7:20pm 285 4 G 6 94° 13% - - 36° 104.6° 62.3° - - -
6/26 7:10pm 279 4 G 7 95° 12% - - 35° 104.6° 62.3° - - -
6/26 7:00pm 286 5 G 7 96° 11% - - 33° 104.6° 62.3° - - -
6/26 6:50pm 286 6 G 10 96° 11% - - 32° 104.6° 62.3° - - -
6/26 6:40pm 280 6 G 10 96° 11% - - 33° 104.6° 62.3° - - -
6/26 6:30pm 268 7 G 12 97° 10% - - 32° 104.6° 62.3° - - -
6/26 6:20pm 288 8 G 12 97° 11% - - 33° 104.6° 62.3° - - -
6/26 6:10pm 282 8 G 12 98° 10% - - 33° 104.6° 62.3° - - -
6/26 6:00pm 283 7 G 12 99° 10% - - 34° 104.6° 62.3° - - -
6/26 5:50pm 293 8 G 13 99° 10% - - 32° 104.6° 62.3° - - -
6/26 5:40pm 287 8 G 13 99° 10% - - 34° 104.6° 62.3° - - -
6/26 5:30pm 276 7 G 12 100° 10% - - 34° 104.6° 62.3° - - -
6/26 5:20pm 263 7 G 10 100° 10% - - 34° 104.6° 62.3° - - -
6/26 5:10pm 273 9 G 13 100° 9% - - 32° 104.6° 62.3° - - -
6/26 5:00pm 277 8 G 12 101° 9% - - 33° 104.6° 62.3° - - -
6/26 4:50pm 272 8 G 13 100° 11% - - 35° 104.6° 62.3° - - -
6/26 4:40pm 291 9 G 15 101° 10% - - 35° 104.6° 62.3° - - -
6/26 4:30pm 301 9 G 15 101° 10% - - 36° 104.6° 62.3° - - -
6/26 4:20pm 290 8 G 14 102° 11% - - 38° 104.6° 62.3° - - -
6/26 4:10pm 304 6 G 12 102° 11% - - 38° 104.6° 62.3° - - -
6/26 4:00pm 312 6 G 11 102° 12% - - 39° 104.6° 62.3° - - -
6/26 3:50pm 273 7 G 12 101° 12% - - 39° 104.6° 62.3° - - -
6/26 3:40pm 279 6 G 13 101° 12% - - 39° 104.6° 62.3° - - -
6/26 3:30pm 272 8 G 13 101° 12% - - 39° 104.6° 62.3° - - -
6/26 3:20pm 267 9 G 15 101° 12% - - 40° 104.6° 62.3° - - -
6/26 3:10pm 271 9 G 15 102° 12% - - 40° 104.6° 62.3° - - -
6/26 3:00pm 263 8 G 15 102° 12% - - 40° 104.6° 62.3° - - -
6/26 2:50pm 288 8 G 13 102° 12% - - 40° 104.6° 62.3° - - -
6/26 2:40pm 266 10 G 16 102° 12% - - 40° 104.6° 62.3° - - -
6/26 2:30pm 284 9 G 14 102° 11% - - 38° 104.6° 62.3° - - -
6/26 2:20pm 283 9 G 16 102° 11% - - 38° 104.6° 62.3° - - -
6/26 2:10pm 280 10 G 16 102° 11% - - 38° 104.6° 62.3° - - -
6/26 2:00pm 303 8 G 14 102° 13% - - 42° 104.6° 62.3° - - -
6/26 1:50pm 323 8 G 14 103° 11% - - 39° 104.6° 62.3° - - -
6/26 1:40pm 305 8 G 13 103° 12% - - 39° 104.6° 62.3° - - -
6/26 1:30pm 281 9 G 16 102° 11% - - 39° 104.6° 62.3° - - -
6/26 1:20pm 304 8 G 15 103° 11% - - 38° 104.6° 62.3° - - -
6/26 1:10pm 300 10 G 16 103° 11% - - 37° 104.6° 62.3° - - -
6/26 1:00pm 291 9 G 14 104° 10% - - 35° 104.6° 62.3° - - -
6/26 12:50pm 296 9 G 15 104° 10% - - 35° 104.6° 62.3° - - -
6/26 12:40pm 274 9 G 15 104° 10% - - 35° 104.6° 62.3° - - -
6/26 12:30pm 288 8 G 15 104° 9% - - 35° 104.6° 62.3° - - -
6/26 12:20pm 273 6 G 11 103° 9% - - 34° 104.2° 62.3° - - -
6/26 12:10pm 270 7 G 12 103° 9% - - 34° 104.2° 62.3° - - -
6/26 12:00pm 256 6 G 10 103° 10% - - 36° 104.2° 62.3° - - -
6/26 11:50am 286 7 G 11 103° 11% - - 39° 104.2° 62.3° - - -
6/26 11:40am 330 4 G 12 103° 13% - - 42° 103.7° 62.3° - - -
6/26 11:30am 358 5 G 10 103° 13% - - 42° 103.5° 62.3° - - -
6/26 11:20am 332 6 G 10 102° 13% - - 42° 103.2° 62.3° - - -
6/26 11:10am 323 6 G 9 102° 13% - - 42° 103.2° 62.3° - - -
6/26 11:00am 314 7 G 10 101° 15% - - 45° 102° 62.3° - - -
6/26 10:50am 302 6 G 11 101° 16% - - 46° 102° 62.3° - - -
6/26 10:40am 295 5 G 9 100° 16% - - 47° 101.2° 62.3° - - -
6/26 10:30am 272 4 G 9 99° 17% - - 47° 100.1° 62.3° - - -
6/26 10:20am 285 4 G 9 98° 18% - - 47° 99.3° 62.3° - - -
6/26 10:10am 316 4 G 7 97° 19% - - 48° 98° 62.3° - - -
6/26 10:00am 294 4 G 7 95° 22% - - 50° 96.4° 62.3° - - -
6/26 9:50am 292 4 G 6 94° 24% - - 51° 94.9° 62.3° - - -
6/26 9:40am 287 5 G 8 92° 24% - - 50° 92.9° 62.3° - - -
6/26 9:30am 292 5 G 7 91° 27% - - 52° 92° 62.3° - - -
6/26 9:20am 291 5 G 7 90° 27% - - 52° 91.6° 62.3° - - -
6/26 9:10am 319 3 G 5 90° 23% - - 47° 91.6° 62.3° - - -
6/26 9:00am 309 3 G 5 90° 24% - - 48° 90.5° 62.3° - - -
6/26 8:50am 235 2 G 4 88° 24% - - 47° 89.5° 62.3° - - -
6/26 8:40am 285 2 G 3 87° 25% - - 47° 87.9° 62.3° - - -
6/26 8:30am 236 1 G 3 86° 25% - - 47° 87.8° 62.3° - - -
6/26 8:20am 323 1 G 3 83° 26% - - 45° 84.7° 62.3° - - -
6/26 8:10am 320 2 G 3 81° 28% - - 45° 82.9° 62.3° - - -
6/26 8:00am 264 1 G 2 79° 34% - - 49° 80.6° 62.3° - - -
6/26 7:50am 248 1 G 2 77° 35% - - 48° 78.4° 62.3° - - -
6/26 7:40am 97 2 G 4 75° 38% - - 48° 76.6° 62.3° - - -
6/26 7:30am 124 0 G 3 73° 41% - - 48° 75.3° 62.3° - - -
6/26 7:20am 73 0 G 1 70° 45% - - 48° 75.3° 62.3° - - -
6/26 7:10am 77 1 G 3 68° 50% - - 48° 75.3° 62.3° - - -
6/26 7:00am 274 1 G 3 68° 49% - - 48° 75.3° 62.3° - - -
6/26 6:50am 311 0 G 1 69° 42% - - 45° 75.3° 62.3° - - -
6/26 6:40am 85 1 G 3 67° 45% - - 45° 75.3° 62.3° - - -
6/26 6:30am 80 2 G 4 65° 51% - - 46° 75.3° 62.3° - - -
6/26 6:20am 111 1 G 4 64° 54% - - 47° 75.3° 62.3° - - -
6/26 6:10am 316 1 G 2 64° 54% - - 48° 75.3° 62.3° - - -
6/26 6:00am 84 1 G 3 64° 53% - - 47° 75.3° 62.3° - - -